VTSK

Details ICAO VTSK (PAN)
Name Pattani
Region Thailand
Timezone Asia/Bangkok (UTC+7.0)
Plans Departing 0
Arriving 2
Stats Elevation 8 ft / 2 m (AMSL)
Location 6.785457° 101.153569°
Runways 1
Magnetic Variation 0.208° W
Sunrise 2017-12-13 23:19:23 UTC / 2017-12-14 06:19:23 Local
Sunset 2017-12-14 11:03:18 UTC / 2017-12-14 18:03:18 Local
Advertisement - Login to hide

Runways

ID Width Length Bearing (true) Bearing (mag) Surface Threshold Offset Overrun Length
08 131 ft / 40 m 4,594 ft / 1,400 m 86.14° 86.35° Asphalt 0 ft / 0 m 492 ft / 150 m
26 131 ft / 40 m 4,594 ft / 1,400 m 266.14° 266.35° Asphalt 0 ft / 0 m 98 ft / 30 m

Map

Weather


0- 5 10 15 20 25 30 35+ Temperature / ° C

Clouds and Precipitation
Forecast for 2017-12-14 00:00 UTC. Updated 2 hours ago

Ground ~20,000 ft ~40,000 ft Winds

METAR

Not found

TAF

TAF VTSK 131700Z 1318/1418 16004KT 8000 FEW020 BECMG 1321/1323 5000 BR BECMG 1401/1403 9999 NSW

Frequencies

Tower 119.30 MHz TWR
Approach 125.55 MHz APP
Warning: Do not use this data for real-world aviation or navigation. No guarantee of current accuracy is given.